Time;durP1;ratioP1;P1;durP2;ratioP2;P2;SDS_P1;SDS_P2;PMS_P1;PMS_P2;Temp;Humidity;BMP_temperature;BMP_pressure;BME280_temperature;BME280_humidity;BME280_pressure;Samples;Min_cycle;Max_cycle;Signal;HPM_P1;HPM_P2
2022/10/03 00:01:15;;;;;;;21.60;5.97;;;;;;;;;;4966585;28;20480;-69
2022/10/03 00:04:00;;;;;;;35.83;7.90;;;;;;;;;;4966245;28;20084;-69
2022/10/03 00:06:32;;;;;;;31.45;6.40;;;;;;;;;;4967955;28;20042;-70
2022/10/03 00:09:00;;;;;;;31.55;7.03;;;;;;;;;;4968611;28;20150;-72
2022/10/03 00:11:47;;;;;;;25.25;5.97;;;;;;;;;;4965772;28;20034;-70
2022/10/03 00:14:31;;;;;;;31.42;6.95;;;;;;;;;;4968511;28;20046;-69
2022/10/03 00:17:12;;;;;;;29.42;6.55;;;;;;;;;;4966055;28;20042;-69
2022/10/03 00:19:55;;;;;;;21.25;6.10;;;;;;;;;;4985943;28;20614;-72
2022/10/03 00:22:41;;;;;;;24.70;5.68;;;;;;;;;;4969928;28;20166;-70
2022/10/03 00:25:07;;;;;;;28.98;6.15;;;;;;;;;;4965584;28;20100;-70
2022/10/03 00:27:38;;;;;;;22.40;5.40;;;;;;;;;;4968262;28;20121;-70
2022/10/03 00:30:10;;;;;;;23.02;6.60;;;;;;;;;;4968730;28;20109;-72
2022/10/03 00:32:40;;;;;;;28.17;7.65;;;;;;;;;;4968029;28;20078;-70
2022/10/03 00:35:12;;;;;;;32.42;7.45;;;;;;;;;;4970226;28;20030;-71
2022/10/03 00:37:48;;;;;;;21.38;5.45;;;;;;;;;;4969141;28;20042;-71
2022/10/03 00:40:14;;;;;;;30.05;6.43;;;;;;;;;;4968132;28;20572;-70
2022/10/03 00:42:52;;;;;;;39.92;7.13;;;;;;;;;;4968353;28;20113;-71
2022/10/03 00:45:54;;;;;;;20.00;6.18;;;;;;;;;;4966172;28;20606;-72
2022/10/03 00:48:20;;;;;;;36.17;7.07;;;;;;;;;;4971094;28;20043;-70
2022/10/03 00:50:55;;;;;;;35.60;7.45;;;;;;;;;;4966837;28;20054;-70
2022/10/03 00:53:33;;;;;;;24.95;6.50;;;;;;;;;;4968619;28;20420;-70
2022/10/03 00:56:03;;;;;;;33.38;7.60;;;;;;;;;;4968785;28;20046;-71
2022/10/03 00:58:36;;;;;;;27.25;6.60;;;;;;;;;;4968550;28;20054;-70
2022/10/03 01:01:19;;;;;;;32.08;7.53;;;;;;;;;;4969341;28;20026;-70
2022/10/03 01:03:59;;;;;;;31.45;7.72;;;;;;;;;;4969241;28;20382;-70
2022/10/03 01:06:34;;;;;;;32.22;6.60;;;;;;;;;;4966648;28;20046;-70
2022/10/03 01:09:03;;;;;;;34.85;6.95;;;;;;;;;;4966455;28;20153;-70
2022/10/03 01:11:45;;;;;;;26.88;6.65;;;;;;;;;;4967179;28;20050;-70
2022/10/03 01:14:17;;;;;;;20.48;6.10;;;;;;;;;;4967522;28;20097;-70
2022/10/03 01:16:46;;;;;;;28.35;6.32;;;;;;;;;;4967864;28;20039;-70
2022/10/03 01:19:19;;;;;;;30.27;6.78;;;;;;;;;;4965160;28;20090;-70
2022/10/03 01:21:44;;;;;;;28.00;6.20;;;;;;;;;;4966434;28;20515;-70
2022/10/03 01:24:10;;;;;;;30.02;7.30;;;;;;;;;;4967448;28;20031;-72
2022/10/03 01:26:49;;;;;;;25.38;6.97;;;;;;;;;;4974984;28;20476;-70
2022/10/03 01:32:22;;;;;;;25.58;6.15;;;;;;;;;;4967644;28;20052;-72
2022/10/03 01:34:57;;;;;;;31.42;6.95;;;;;;;;;;4966755;28;20479;-71
2022/10/03 01:37:33;;;;;;;34.10;7.15;;;;;;;;;;4966151;28;20548;-70
2022/10/03 01:39:59;;;;;;;24.48;6.03;;;;;;;;;;4968290;28;20047;-70
2022/10/03 01:42:44;;;;;;;25.48;6.68;;;;;;;;;;4967308;28;20078;-70
2022/10/03 01:45:14;;;;;;;25.10;6.93;;;;;;;;;;4967033;28;20027;-70
2022/10/03 01:47:40;;;;;;;25.70;5.67;;;;;;;;;;4966492;28;20395;-70
2022/10/03 01:50:16;;;;;;;27.65;6.55;;;;;;;;;;4966856;28;20033;-70
2022/10/03 01:52:57;;;;;;;41.00;9.48;;;;;;;;;;4964407;28;20038;-70
2022/10/03 01:55:43;;;;;;;23.52;7.25;;;;;;;;;;4962699;28;20043;-69
2022/10/03 01:58:19;;;;;;;27.13;7.72;;;;;;;;;;4966476;28;20047;-69
2022/10/03 02:00:49;;;;;;;21.30;6.57;;;;;;;;;;4967079;28;20042;-69
2022/10/03 02:03:21;;;;;;;39.08;7.55;;;;;;;;;;4965691;28;20419;-70
2022/10/03 02:05:47;;;;;;;32.10;6.93;;;;;;;;;;4964682;28;20054;-69
2022/10/03 02:08:16;;;;;;;27.45;6.65;;;;;;;;;;4963869;28;20023;-70
2022/10/03 02:10:50;;;;;;;38.47;7.53;;;;;;;;;;4965875;28;20233;-70
2022/10/03 02:13:30;;;;;;;30.95;7.63;;;;;;;;;;4961944;28;20133;-70
2022/10/03 02:16:06;;;;;;;31.13;7.50;;;;;;;;;;4966671;28;20042;-70
2022/10/03 02:19:02;;;;;;;27.73;6.80;;;;;;;;;;4967313;28;20170;-69
2022/10/03 02:21:31;;;;;;;23.20;6.63;;;;;;;;;;4963879;28;20058;-70
2022/10/03 02:24:22;;;;;;;28.42;6.95;;;;;;;;;;4964942;28;20065;-70
2022/10/03 02:26:48;;;;;;;28.80;7.20;;;;;;;;;;4965308;28;20061;-70
2022/10/03 02:29:20;;;;;;;28.40;6.80;;;;;;;;;;4964614;28;20031;-70
2022/10/03 02:31:55;;;;;;;34.30;7.28;;;;;;;;;;4964709;28;20026;-70
2022/10/03 02:34:24;;;;;;;28.27;7.50;;;;;;;;;;4966202;28;20026;-70
2022/10/03 02:36:50;;;;;;;25.63;5.85;;;;;;;;;;4963992;28;20058;-69
2022/10/03 02:39:25;;;;;;;19.25;6.30;;;;;;;;;;4981287;28;20068;-70
2022/10/03 02:41:51;;;;;;;26.52;7.35;;;;;;;;;;4965510;28;20342;-70
2022/10/03 02:44:36;;;;;;;25.25;6.70;;;;;;;;;;4966153;28;20065;-70
2022/10/03 02:47:21;;;;;;;27.67;6.43;;;;;;;;;;4964763;28;20429;-70
2022/10/03 02:50:09;;;;;;;30.15;7.00;;;;;;;;;;4965207;28;20158;-70
2022/10/03 02:53:05;;;;;;;33.08;7.68;;;;;;;;;;4965045;28;20031;-70
2022/10/03 02:56:01;;;;;;;29.75;7.00;;;;;;;;;;4962535;28;20070;-70
2022/10/03 02:58:32;;;;;;;31.60;6.40;;;;;;;;;;4967057;28;20043;-70
2022/10/03 03:01:17;;;;;;;25.95;6.43;;;;;;;;;;4967301;28;20038;-70
2022/10/03 03:03:58;;;;;;;21.70;6.45;;;;;;;;;;4962511;28;20050;-70
2022/10/03 03:06:37;;;;;;;23.40;6.68;;;;;;;;;;4966040;28;20480;-71
2022/10/03 03:09:12;;;;;;;26.55;6.32;;;;;;;;;;4967397;28;20185;-70
2022/10/03 03:11:58;;;;;;;21.63;6.97;;;;;;;;;;4963351;28;20034;-71
2022/10/03 03:14:24;;;;;;;21.33;5.85;;;;;;;;;;4964847;28;20054;-70
2022/10/03 03:17:20;;;;;;;20.95;5.80;;;;;;;;;;4965304;28;20069;-69
2022/10/03 03:19:46;;;;;;;25.98;5.88;;;;;;;;;;4970243;28;20093;-69
2022/10/03 03:22:26;;;;;;;26.45;6.50;;;;;;;;;;4963787;28;20070;-71
2022/10/03 03:25:08;;;;;;;29.23;7.00;;;;;;;;;;4968978;28;20026;-71
2022/10/03 03:27:37;;;;;;;23.50;6.80;;;;;;;;;;4970729;28;20480;-69
2022/10/03 03:30:03;;;;;;;29.13;7.07;;;;;;;;;;4969882;28;20045;-69
2022/10/03 03:32:38;;;;;;;24.98;6.80;;;;;;;;;;4969195;28;20035;-69
2022/10/03 03:35:22;;;;;;;31.17;7.47;;;;;;;;;;4968508;28;20019;-71
2022/10/03 03:37:56;;;;;;;22.25;7.15;;;;;;;;;;4968181;28;20027;-71
2022/10/03 03:40:48;;;;;;;28.48;8.65;;;;;;;;;;4967997;28;20114;-69
2022/10/03 03:43:14;;;;;;;24.50;8.68;;;;;;;;;;4976121;28;20121;-71
2022/10/03 03:46:03;;;;;;;30.73;8.82;;;;;;;;;;4969751;28;20125;-71
2022/10/03 03:48:29;;;;;;;31.85;8.32;;;;;;;;;;4968125;28;20436;-71
2022/10/03 03:50:56;;;;;;;24.58;7.85;;;;;;;;;;4969689;28;20038;-70
2022/10/03 03:53:40;;;;;;;26.95;6.78;;;;;;;;;;4971006;28;20046;-70
2022/10/03 03:56:25;;;;;;;21.40;7.47;;;;;;;;;;4971141;28;20034;-69
2022/10/03 03:58:51;;;;;;;24.77;7.35;;;;;;;;;;4970133;28;20078;-69
2022/10/03 04:01:27;;;;;;;25.55;8.05;;;;;;;;;;4967362;28;20886;-69
2022/10/03 04:04:13;;;;;;;30.17;8.38;;;;;;;;;;4969351;28;20037;-69
2022/10/03 04:06:57;;;;;;;36.80;9.15;;;;;;;;;;4970286;28;20041;-70
2022/10/03 04:09:44;;;;;;;30.35;8.32;;;;;;;;;;4968748;28;20035;-72
2022/10/03 04:12:16;;;;;;;29.45;10.35;;;;;;;;;;4969557;28;20043;-71
2022/10/03 04:14:45;;;;;;;29.77;8.68;;;;;;;;;;4967218;28;20059;-69
2022/10/03 04:20:11;;;;;;;23.83;7.43;;;;;;;;;;4966452;28;20463;-70
2022/10/03 04:22:40;;;;;;;31.95;6.78;;;;;;;;;;4968355;28;20105;-71
2022/10/03 04:25:19;;;;;;;22.23;5.28;;;;;;;;;;4967767;28;20058;-71
2022/10/03 04:28:03;;;;;;;16.85;4.25;;;;;;;;;;4970674;28;20027;-71
2022/10/03 04:30:38;;;;;;;11.57;3.42;;;;;;;;;;4966651;28;20043;-70
2022/10/03 04:33:13;;;;;;;29.63;5.97;;;;;;;;;;4969407;28;20026;-71
2022/10/03 04:35:55;;;;;;;14.27;5.78;;;;;;;;;;4964683;28;20034;-70
2022/10/03 04:38:21;;;;;;;22.58;5.60;;;;;;;;;;4969192;28;20504;-70
2022/10/03 04:40:57;;;;;;;13.95;5.43;;;;;;;;;;4968628;28;20122;-71
2022/10/03 04:43:35;;;;;;;17.38;5.13;;;;;;;;;;4969994;28;20046;-71
2022/10/03 04:46:10;;;;;;;18.40;4.70;;;;;;;;;;4968558;28;20031;-70
2022/10/03 04:48:40;;;;;;;16.35;5.15;;;;;;;;;;4969846;28;20026;-71
2022/10/03 04:51:07;;;;;;;18.38;5.50;;;;;;;;;;4971775;28;20050;-71
2022/10/03 04:53:39;;;;;;;21.30;6.25;;;;;;;;;;4967102;28;20210;-71
2022/10/03 04:56:24;;;;;;;23.05;6.82;;;;;;;;;;4964210;28;20122;-71
2022/10/03 04:58:56;;;;;;;27.45;7.45;;;;;;;;;;4961827;28;20100;-71
2022/10/03 05:01:28;;;;;;;22.27;6.95;;;;;;;;;;4965106;28;20019;-70
2022/10/03 05:04:15;;;;;;;32.70;8.20;;;;;;;;;;4970160;28;20049;-70
2022/10/03 05:06:47;;;;;;;22.92;8.57;;;;;;;;;;4968000;28;20026;-70
2022/10/03 05:09:16;;;;;;;27.67;7.95;;;;;;;;;;4964989;28;20038;-70
2022/10/03 05:12:01;;;;;;;18.65;7.55;;;;;;;;;;4963730;28;20117;-70
2022/10/03 05:14:48;;;;;;;33.50;8.77;;;;;;;;;;4965200;28;20413;-70
2022/10/03 05:17:23;;;;;;;28.63;8.70;;;;;;;;;;4964407;28;20046;-70
2022/10/03 05:20:13;;;;;;;31.33;8.95;;;;;;;;;;4967571;28;20129;-70
2022/10/03 05:22:44;;;;;;;26.60;8.10;;;;;;;;;;4951107;28;20656;-70
2022/10/03 05:25:13;;;;;;;41.15;11.07;;;;;;;;;;4980395;28;20518;-70
2022/10/03 05:27:39;;;;;;;29.42;8.60;;;;;;;;;;4963673;28;20070;-71
2022/10/03 05:30:18;;;;;;;26.02;8.48;;;;;;;;;;4965253;28;20492;-70
2022/10/03 05:32:50;;;;;;;28.65;8.10;;;;;;;;;;4965418;28;20034;-70
2022/10/03 05:35:22;;;;;;;41.60;10.32;;;;;;;;;;4972264;28;20625;-71
2022/10/03 05:38:18;;;;;;;36.25;9.13;;;;;;;;;;4969967;28;20038;-72
2022/10/03 05:40:59;;;;;;;27.48;8.25;;;;;;;;;;4957417;28;20046;-71
2022/10/03 05:43:44;;;;;;;25.40;9.38;;;;;;;;;;4964843;28;20066;-71
2022/10/03 05:46:19;;;;;;;34.58;9.38;;;;;;;;;;4963346;28;20117;-70
2022/10/03 05:48:45;;;;;;;32.85;10.77;;;;;;;;;;4964997;28;20106;-70
2022/10/03 05:51:35;;;;;;;40.92;10.40;;;;;;;;;;4966177;28;20534;-70
2022/10/03 05:54:01;;;;;;;27.85;9.43;;;;;;;;;;4960068;28;20063;-70
2022/10/03 05:56:46;;;;;;;33.08;9.57;;;;;;;;;;4963937;28;20041;-70
2022/10/03 05:59:24;;;;;;;34.75;10.23;;;;;;;;;;4964191;28;20038;-70
2022/10/03 06:02:18;;;;;;;38.65;10.98;;;;;;;;;;4959165;28;20030;-70
2022/10/03 06:05:02;;;;;;;45.55;12.00;;;;;;;;;;4964107;28;20034;-70
2022/10/03 06:07:37;;;;;;;45.88;12.52;;;;;;;;;;4960859;28;20043;-70
2022/10/03 06:10:24;;;;;;;46.75;12.90;;;;;;;;;;4958924;28;20522;-70
2022/10/03 06:12:56;;;;;;;36.40;12.07;;;;;;;;;;4962919;28;20473;-70
2022/10/03 06:15:38;;;;;;;49.10;13.27;;;;;;;;;;4965542;28;20034;-71
2022/10/03 06:18:13;;;;;;;42.63;13.52;;;;;;;;;;4959999;28;20089;-70
2022/10/03 06:20:54;;;;;;;44.25;13.75;;;;;;;;;;4965900;28;20062;-69
2022/10/03 06:23:39;;;;;;;28.90;11.40;;;;;;;;;;4986458;28;20104;-69
2022/10/03 06:26:23;;;;;;;30.67;12.48;;;;;;;;;;4967734;28;20034;-70
2022/10/03 06:29:02;;;;;;;37.17;12.52;;;;;;;;;;4969953;28;20026;-70
2022/10/03 06:31:49;;;;;;;40.70;11.88;;;;;;;;;;4970839;28;20494;-70
2022/10/03 06:34:22;;;;;;;41.10;12.90;;;;;;;;;;4968549;28;20038;-70
2022/10/03 06:36:51;;;;;;;32.60;10.95;;;;;;;;;;4965286;28;20049;-70
2022/10/03 06:39:44;;;;;;;30.13;11.70;;;;;;;;;;4964273;28;20134;-70
2022/10/03 06:42:20;;;;;;;40.35;14.05;;;;;;;;;;4972049;28;20018;-69
2022/10/03 06:44:55;;;;;;;41.33;13.23;;;;;;;;;;4968992;28;20066;-70
2022/10/03 06:47:33;;;;;;;41.05;15.73;;;;;;;;;;4969985;28;20065;-70
2022/10/03 06:50:08;;;;;;;47.05;15.43;;;;;;;;;;4970745;28;20054;-71
2022/10/03 06:52:40;;;;;;;31.83;11.88;;;;;;;;;;4971539;28;20129;-69
2022/10/03 06:55:12;;;;;;;32.58;11.63;;;;;;;;;;4967155;28;20090;-70
2022/10/03 06:58:04;;;;;;;32.80;10.55;;;;;;;;;;4976580;28;20039;-70
2022/10/03 07:00:36;;;;;;;33.63;11.20;;;;;;;;;;4968876;28;20480;-70
2022/10/03 07:03:09;;;;;;;22.90;9.88;;;;;;;;;;4965401;28;20027;-70
2022/10/03 07:05:39;;;;;;;29.83;10.90;;;;;;;;;;4967166;28;20487;-69
2022/10/03 07:08:23;;;;;;;31.92;11.60;;;;;;;;;;4977577;28;20027;-70
2022/10/03 07:10:49;;;;;;;28.40;10.30;;;;;;;;;;4968961;28;20468;-70
2022/10/03 07:13:15;;;;;;;39.03;10.77;;;;;;;;;;4962999;28;20027;-70
2022/10/03 07:15:41;;;;;;;33.35;11.27;;;;;;;;;;4969948;28;20073;-70
2022/10/03 07:18:22;;;;;;;35.45;11.80;;;;;;;;;;4968405;28;20527;-70
2022/10/03 07:20:48;;;;;;;;;;;;;;;;;;4968840;28;20038;-70
2022/10/03 07:23:32;;;;;;;25.88;10.55;;;;;;;;;;4971494;28;19916;-70
2022/10/03 07:26:17;;;;;;;27.33;11.30;;;;;;;;;;4966697;28;20033;-70
2022/10/03 07:28:52;;;;;;;32.72;12.50;;;;;;;;;;4968708;28;20027;-69
2022/10/03 07:31:24;;;;;;;31.83;12.32;;;;;;;;;;4956188;28;20041;-70
2022/10/03 07:34:09;;;;;;;37.90;13.40;;;;;;;;;;4969436;28;20485;-69
2022/10/03 07:40:00;;;;;;;38.10;12.77;;;;;;;;;;4959195;28;20035;-70
2022/10/03 07:42:38;;;;;;;32.70;11.43;;;;;;;;;;4969401;28;20061;-71
2022/10/03 07:45:07;;;;;;;40.10;13.77;;;;;;;;;;4962860;28;20041;-70
2022/10/03 07:47:52;;;;;;;35.30;12.55;;;;;;;;;;4964078;28;20027;-69
2022/10/03 07:50:36;;;;;;;22.65;10.13;;;;;;;;;;4968903;28;20057;-70
2022/10/03 07:53:25;;;;;;;33.97;10.40;;;;;;;;;;4966380;28;20377;-70
2022/10/03 07:56:03;;;;;;;29.88;10.68;;;;;;;;;;4969885;28;20058;-69
2022/10/03 07:58:36;;;;;;;29.77;10.10;;;;;;;;;;4968587;28;20058;-69
2022/10/03 08:01:08;;;;;;;30.92;8.93;;;;;;;;;;4970512;28;20476;-77
2022/10/03 08:03:34;;;;;;;26.67;8.90;;;;;;;;;;4964299;28;20102;-70
2022/10/03 08:06:04;;;;;;;36.67;9.68;;;;;;;;;;4968921;28;20110;-70
2022/10/03 08:08:33;;;;;;;26.73;8.75;;;;;;;;;;4967479;28;20116;-70
2022/10/03 08:11:18;;;;;;;19.90;8.02;;;;;;;;;;4965336;28;20023;-69
2022/10/03 08:14:13;;;;;;;27.02;8.68;;;;;;;;;;4968945;28;20058;-69
2022/10/03 08:16:51;;;;;;;25.55;9.77;;;;;;;;;;4983644;28;20035;-69
2022/10/03 08:19:25;;;;;;;28.05;8.05;;;;;;;;;;4970768;28;20561;-69
2022/10/03 08:21:56;;;;;;;25.88;9.50;;;;;;;;;;4969363;28;20042;-69
2022/10/03 08:24:28;;;;;;;40.72;10.77;;;;;;;;;;4970676;28;20399;-69
2022/10/03 08:27:00;;;;;;;22.27;8.55;;;;;;;;;;4959321;28;20035;-68
2022/10/03 08:29:29;;;;;;;22.92;8.23;;;;;;;;;;4982235;28;20151;-69
2022/10/03 08:32:13;;;;;;;24.40;8.68;;;;;;;;;;4967650;28;20039;-68
2022/10/03 08:34:45;;;;;;;26.40;8.88;;;;;;;;;;4970082;28;20042;-69
2022/10/03 08:37:30;;;;;;;15.88;7.60;;;;;;;;;;4966876;28;20034;-69
2022/10/03 08:40:10;;;;;;;20.10;7.75;;;;;;;;;;4970497;28;20443;-69
2022/10/03 08:42:41;;;;;;;27.95;7.47;;;;;;;;;;4972892;28;20039;-69
2022/10/03 08:45:08;;;;;;;25.67;6.10;;;;;;;;;;4972193;28;20018;-69
2022/10/03 08:47:43;;;;;;;15.50;5.13;;;;;;;;;;4972276;28;20038;-69
2022/10/03 08:50:28;;;;;;;21.83;5.35;;;;;;;;;;4970209;28;20058;-69
2022/10/03 08:53:13;;;;;;;22.90;5.03;;;;;;;;;;4978266;28;20030;-69
2022/10/03 08:55:48;;;;;;;24.27;5.03;;;;;;;;;;4970189;28;20035;-69
2022/10/03 08:58:26;;;;;;;20.33;5.22;;;;;;;;;;4972804;28;20574;-69
2022/10/03 09:01:10;;;;;;;14.38;5.03;;;;;;;;;;4970753;28;20043;-69
2022/10/03 09:03:39;;;;;;;19.33;5.40;;;;;;;;;;4969810;28;20487;-71
2022/10/03 09:06:24;;;;;;;16.83;4.10;;;;;;;;;;4971680;28;20035;-70
2022/10/03 09:09:05;;;;;;;20.70;4.38;;;;;;;;;;4973734;28;20034;-70
2022/10/03 09:11:31;;;;;;;;;;;;;;;;;;4972024;28;20027;-69
2022/10/03 09:14:26;;;;;;;13.25;4.00;;;;;;;;;;4988794;28;19948;-70
2022/10/03 09:17:02;;;;;;;11.60;3.38;;;;;;;;;;4967296;28;20047;-69
2022/10/03 09:19:28;;;;;;;19.45;4.30;;;;;;;;;;4973347;28;20082;-70
2022/10/03 09:21:54;;;;;;;18.70;4.13;;;;;;;;;;4967657;28;20026;-69
2022/10/03 09:24:39;;;;;;;12.35;3.10;;;;;;;;;;4967732;28;20061;-70
2022/10/03 09:27:12;;;;;;;16.58;3.20;;;;;;;;;;4967124;28;20045;-70
2022/10/03 09:29:38;;;;;;;12.65;3.65;;;;;;;;;;4968844;28;20101;-70
2022/10/03 09:32:07;;;;;;;15.82;3.58;;;;;;;;;;4972597;28;20404;-70
2022/10/03 09:34:57;;;;;;;15.60;3.80;;;;;;;;;;4971992;28;20114;-70
2022/10/03 09:37:36;;;;;;;17.75;3.90;;;;;;;;;;4972094;28;20049;-69
2022/10/03 09:40:02;;;;;;;23.05;4.10;;;;;;;;;;4977308;28;20226;-71
2022/10/03 09:42:47;;;;;;;23.40;4.05;;;;;;;;;;4968448;28;20039;-69
2022/10/03 09:45:31;;;;;;;22.58;4.00;;;;;;;;;;4970299;28;20042;-68
2022/10/03 09:48:16;;;;;;;15.45;3.60;;;;;;;;;;4967561;28;20042;-68
2022/10/03 09:51:00;;;;;;;17.23;3.38;;;;;;;;;;4970124;28;20027;-69
2022/10/03 09:53:28;;;;;;;14.52;3.33;;;;;;;;;;4963878;28;20050;-69
2022/10/03 09:56:00;;;;;;;11.38;2.97;;;;;;;;;;4969532;28;20074;-69
2022/10/03 09:58:42;;;;;;;21.73;3.70;;;;;;;;;;4969197;28;20109;-69
2022/10/03 10:01:30;;;;;;;17.52;3.88;;;;;;;;;;4968523;28;20085;-68
2022/10/03 10:04:14;;;;;;;18.30;3.25;;;;;;;;;;4968456;28;20058;-69
2022/10/03 10:06:53;;;;;;;13.68;3.13;;;;;;;;;;4975994;28;20030;-69
2022/10/03 10:09:38;;;;;;;13.88;3.13;;;;;;;;;;4975864;28;20121;-69
2022/10/03 10:12:04;;;;;;;15.80;2.95;;;;;;;;;;4973765;28;20045;-68
2022/10/03 10:14:45;;;;;;;11.80;2.45;;;;;;;;;;4972878;28;20023;-69
2022/10/03 10:17:11;;;;;;;12.63;2.83;;;;;;;;;;4973736;28;20073;-71
2022/10/03 10:19:50;;;;;;;13.73;2.97;;;;;;;;;;4967778;28;20062;-68
2022/10/03 10:22:35;;;;;;;17.77;2.50;;;;;;;;;;4964366;28;20039;-68
2022/10/03 10:25:12;;;;;;;11.43;1.98;;;;;;;;;;4968706;28;20071;-68
2022/10/03 10:27:51;;;;;;;14.80;2.60;;;;;;;;;;4960409;28;20534;-69
2022/10/03 10:30:20;;;;;;;12.43;2.58;;;;;;;;;;4971739;28;20026;-69
2022/10/03 10:32:52;;;;;;;11.95;2.95;;;;;;;;;;4968982;28;20034;-69
2022/10/03 10:35:38;;;;;;;38.88;3.38;;;;;;;;;;4967327;28;20035;-69
2022/10/03 10:38:24;;;;;;;12.18;2.67;;;;;;;;;;4971071;28;20042;-71
2022/10/03 10:40:54;;;;;;;9.13;2.13;;;;;;;;;;4966731;28;20043;-69
2022/10/03 10:43:26;;;;;;;12.27;2.10;;;;;;;;;;4964131;28;20019;-70
2022/10/03 10:46:04;;;;;;;10.57;2.45;;;;;;;;;;4985065;28;20035;-69
2022/10/03 10:48:49;;;;;;;9.68;2.28;;;;;;;;;;4968998;28;20146;-69
2022/10/03 10:51:37;;;;;;;13.25;2.75;;;;;;;;;;4967294;28;20159;-69
2022/10/03 10:54:06;;;;;;;10.10;2.28;;;;;;;;;;4968764;28;20715;-69
2022/10/03 10:56:53;;;;;;;11.02;1.98;;;;;;;;;;4965395;28;20023;-68
2022/10/03 10:59:34;;;;;;;9.73;1.98;;;;;;;;;;4964628;28;20093;-68
2022/10/03 11:02:03;;;;;;;9.88;1.83;;;;;;;;;;4965065;28;20031;-68
2022/10/03 11:04:29;;;;;;;11.88;1.98;;;;;;;;;;4963058;28;20034;-69
2022/10/03 11:07:04;;;;;;;10.10;2.03;;;;;;;;;;4966522;28;20027;-68
2022/10/03 11:09:49;;;;;;;10.90;1.92;;;;;;;;;;4963922;28;20030;-69
2022/10/03 11:12:36;;;;;;;9.60;1.98;;;;;;;;;;4968772;28;20551;-69
2022/10/03 11:15:08;;;;;;;10.20;2.03;;;;;;;;;;4978508;28;20031;-70
2022/10/03 11:17:46;;;;;;;11.00;1.95;;;;;;;;;;4965941;28;20046;-69
2022/10/03 11:20:15;;;;;;;13.75;2.03;;;;;;;;;;4967226;28;20089;-69
2022/10/03 11:22:44;;;;;;;8.30;1.73;;;;;;;;;;4968545;28;20404;-69
2022/10/03 11:25:29;;;;;;;13.55;2.15;;;;;;;;;;4969907;28;20027;-68
2022/10/03 11:28:10;;;;;;;12.07;2.45;;;;;;;;;;4969967;28;20178;-69
2022/10/03 11:30:36;;;;;;;14.45;2.17;;;;;;;;;;4970651;28;20130;-68
2022/10/03 11:33:05;;;;;;;13.63;2.42;;;;;;;;;;4971918;28;20404;-68
2022/10/03 11:35:49;;;;;;;10.63;1.88;;;;;;;;;;4971815;28;20034;-69
2022/10/03 11:38:23;;;;;;;9.07;1.90;;;;;;;;;;4969674;28;20192;-69
2022/10/03 11:41:01;;;;;;;10.73;2.15;;;;;;;;;;4975292;28;20481;-68
2022/10/03 11:43:46;;;;;;;15.00;2.00;;;;;;;;;;4969986;28;20030;-69
2022/10/03 11:46:24;;;;;;;12.57;1.95;;;;;;;;;;4970597;28;20035;-68
2022/10/03 11:49:15;;;;;;;13.05;2.08;;;;;;;;;;4968613;28;20066;-70
2022/10/03 11:51:43;;;;;;;10.63;2.20;;;;;;;;;;4984115;28;20034;-69
2022/10/03 11:54:29;;;;;;;11.50;1.98;;;;;;;;;;4972799;28;20086;-69
2022/10/03 11:56:55;;;;;;;14.13;2.72;;;;;;;;;;4969369;28;20035;-69
2022/10/03 11:59:21;;;;;;;13.98;2.40;;;;;;;;;;4971241;28;20050;-70
2022/10/03 12:01:47;;;;;;;12.65;2.35;;;;;;;;;;4967829;28;20031;-69
2022/10/03 12:04:19;;;;;;;9.48;2.42;;;;;;;;;;4972669;28;20042;-69
2022/10/03 12:10:12;;;;;;;13.95;2.17;;;;;;;;;;4970746;28;20143;-69
2022/10/03 12:12:51;;;;;;;13.55;2.38;;;;;;;;;;4970959;28;20035;-69
2022/10/03 12:15:29;;;;;;;13.30;2.55;;;;;;;;;;4967634;28;20732;-69
2022/10/03 12:18:04;;;;;;;12.95;2.47;;;;;;;;;;4970570;28;20030;-69
2022/10/03 12:20:30;;;;;;;10.25;2.17;;;;;;;;;;4968932;28;20575;-69
2022/10/03 12:23:19;;;;;;;13.15;3.05;;;;;;;;;;4970525;28;20046;-69
2022/10/03 12:25:45;;;;;;;8.15;2.30;;;;;;;;;;4967506;28;20030;-69
2022/10/03 12:28:24;;;;;;;13.00;2.58;;;;;;;;;;4965966;28;20508;-69
2022/10/03 12:31:00;;;;;;;13.15;3.35;;;;;;;;;;4976157;28;20100;-69
2022/10/03 12:33:27;;;;;;;15.35;2.38;;;;;;;;;;4968469;28;20042;-69
2022/10/03 12:36:02;;;;;;;10.45;1.98;;;;;;;;;;4971512;28;20056;-69
2022/10/03 12:38:44;;;;;;;13.70;2.10;;;;;;;;;;4965833;28;20042;-69
2022/10/03 12:41:14;;;;;;;11.90;2.80;;;;;;;;;;4972922;28;20034;-69
2022/10/03 12:43:41;;;;;;;;;;;;;;;;;;4970143;28;20035;-69
2022/10/03 12:46:27;;;;;;;9.20;2.58;;;;;;;;;;4970480;28;19922;-69
2022/10/03 12:49:09;;;;;;;13.60;2.97;;;;;;;;;;4970309;28;20042;-69
2022/10/03 12:51:52;;;;;;;19.90;3.10;;;;;;;;;;4971461;28;20043;-69
2022/10/03 12:54:38;;;;;;;16.38;3.00;;;;;;;;;;4972396;28;20054;-69
2022/10/03 12:57:04;;;;;;;14.25;2.90;;;;;;;;;;4971791;28;20492;-69
2022/10/03 12:59:30;;;;;;;11.77;2.95;;;;;;;;;;4971467;28;20034;-69
2022/10/03 13:02:11;;;;;;;9.43;2.40;;;;;;;;;;4971557;28;20084;-69
2022/10/03 13:04:51;;;;;;;12.15;3.35;;;;;;;;;;4972901;28;20031;-70
2022/10/03 13:07:23;;;;;;;11.90;2.90;;;;;;;;;;4973214;28;20032;-68
2022/10/03 13:09:58;;;;;;;13.20;2.65;;;;;;;;;;4970998;28;20026;-68
2022/10/03 13:12:44;;;;;;;11.20;2.63;;;;;;;;;;4970900;28;20481;-68
2022/10/03 13:15:29;;;;;;;31.23;3.75;;;;;;;;;;4967558;28;20129;-69
2022/10/03 13:18:14;;;;;;;14.85;2.85;;;;;;;;;;4971514;28;20133;-68
2022/10/03 13:20:44;;;;;;;13.55;2.90;;;;;;;;;;4971010;28;20143;-69
2022/10/03 13:23:10;;;;;;;7.85;2.53;;;;;;;;;;4971143;28;20134;-68
2022/10/03 13:25:44;;;;;;;14.18;2.63;;;;;;;;;;4973031;28;20122;-69
2022/10/03 13:28:15;;;;;;;21.38;3.47;;;;;;;;;;4965288;28;20107;-69
2022/10/03 13:30:55;;;;;;;10.15;2.63;;;;;;;;;;4972081;28;20035;-69
2022/10/03 13:33:26;;;;;;;12.88;2.92;;;;;;;;;;4971347;28;20160;-68
2022/10/03 13:35:57;;;;;;;;;;;;;;;;;;4972794;28;20050;-69
2022/10/03 13:38:36;;;;;;;16.15;3.08;;;;;;;;;;4971789;28;19914;-70
2022/10/03 13:41:14;;;;;;;17.40;3.10;;;;;;;;;;4972653;28;20035;-69
2022/10/03 13:43:45;;;;;;;22.08;3.60;;;;;;;;;;4973698;28;20071;-67
2022/10/03 13:46:14;;;;;;;18.58;3.20;;;;;;;;;;4982955;28;20539;-69
2022/10/03 13:48:42;;;;;;;25.38;3.28;;;;;;;;;;4972064;28;20122;-69
2022/10/03 13:51:22;;;;;;;13.55;2.70;;;;;;;;;;4985676;28;20069;-70
2022/10/03 13:53:59;;;;;;;16.08;2.50;;;;;;;;;;4976144;28;20050;-73
2022/10/03 13:56:35;;;;;;;15.93;3.22;;;;;;;;;;4975238;28;20035;-72
2022/10/03 13:59:07;;;;;;;15.88;3.22;;;;;;;;;;4970790;28;20030;-70
2022/10/03 14:01:40;;;;;;;15.00;2.83;;;;;;;;;;4974342;28;20033;-68
2022/10/03 14:04:21;;;;;;;9.32;2.10;;;;;;;;;;4974572;28;20018;-67
2022/10/03 14:06:56;;;;;;;10.73;2.63;;;;;;;;;;4977817;28;20043;-69
2022/10/03 14:09:41;;;;;;;11.75;2.45;;;;;;;;;;4968667;28;20034;-68
2022/10/03 14:12:16;;;;;;;9.55;1.88;;;;;;;;;;4973147;28;20439;-69
2022/10/03 14:15:01;;;;;;;6.88;1.75;;;;;;;;;;4971111;28;20805;-69
2022/10/03 14:17:30;;;;;;;8.98;1.90;;;;;;;;;;4971666;28;20778;-69
2022/10/03 14:20:19;;;;;;;16.50;2.40;;;;;;;;;;4966634;28;20027;-68
2022/10/03 14:22:57;;;;;;;12.45;2.47;;;;;;;;;;4965927;28;20031;-68
2022/10/03 14:25:23;;;;;;;17.40;2.60;;;;;;;;;;4966068;28;20034;-69
2022/10/03 14:28:19;;;;;;;13.60;3.00;;;;;;;;;;4974359;28;20766;-68
2022/10/03 14:30:54;;;;;;;14.32;2.33;;;;;;;;;;4969044;28;20071;-69
2022/10/03 14:33:34;;;;;;;13.88;2.28;;;;;;;;;;4965776;28;20089;-69
2022/10/03 14:36:09;;;;;;;23.15;2.60;;;;;;;;;;4965821;28;20035;-69
2022/10/03 14:41:24;;;;;;;20.17;2.83;;;;;;;;;;4966676;28;20122;-69
2022/10/03 14:43:55;;;;;;;11.63;2.40;;;;;;;;;;4964064;28;20048;-69
2022/10/03 14:46:23;;;;;;;10.98;2.40;;;;;;;;;;4972961;28;20062;-68
2022/10/03 14:48:51;;;;;;;13.40;2.53;;;;;;;;;;4965478;28;20492;-68
2022/10/03 14:51:28;;;;;;;14.93;2.80;;;;;;;;;;4971449;28;20035;-68
2022/10/03 14:54:01;;;;;;;12.55;2.10;;;;;;;;;;4970603;28;20362;-70
2022/10/03 14:56:27;;;;;;;14.57;2.72;;;;;;;;;;4966956;28;20248;-68
2022/10/03 14:58:54;;;;;;;14.00;2.45;;;;;;;;;;4977661;28;20140;-69
2022/10/03 15:01:23;;;;;;;17.30;3.00;;;;;;;;;;4963877;28;20117;-69
2022/10/03 15:03:58;;;;;;;12.40;2.55;;;;;;;;;;4974630;28;20031;-68
2022/10/03 15:06:31;;;;;;;34.53;3.33;;;;;;;;;;4970266;28;20026;-69
2022/10/03 15:09:01;;;;;;;18.48;2.10;;;;;;;;;;4964964;28;20043;-72
2022/10/03 15:11:29;;;;;;;10.90;2.70;;;;;;;;;;4962977;28;20031;-69
2022/10/03 15:14:05;;;;;;;13.60;2.38;;;;;;;;;;4965987;28;20041;-69
2022/10/03 15:16:34;;;;;;;15.70;3.03;;;;;;;;;;4963807;28;20039;-70
2022/10/03 15:19:08;;;;;;;14.20;2.65;;;;;;;;;;4964068;28;20126;-68
2022/10/03 15:21:34;;;;;;;17.45;2.72;;;;;;;;;;4970860;28;20043;-68
2022/10/03 15:24:03;;;;;;;12.18;2.03;;;;;;;;;;4970613;28;20015;-69
2022/10/03 15:26:32;;;;;;;14.43;2.90;;;;;;;;;;4969055;28;20612;-68
2022/10/03 15:29:01;;;;;;;15.20;2.30;;;;;;;;;;4971645;28;20092;-69
2022/10/03 15:31:32;;;;;;;18.35;3.67;;;;;;;;;;4961463;28;20865;-69
2022/10/03 15:33:59;;;;;;;22.98;3.03;;;;;;;;;;4967212;28;20139;-68
2022/10/03 15:36:27;;;;;;;15.10;3.03;;;;;;;;;;4964311;28;20042;-68
2022/10/03 15:38:55;;;;;;;17.55;3.28;;;;;;;;;;4972048;28;20763;-71